Accueil
METAR-TAF:

METAR-TAF

Aéroports :

Annecy, France

Aéroport d'Annecy Haute-Savoie Mont-Blanc

latitude: 45-55-45N, longitude: 006-05-56E, altitude: 463 m

Observation

Le bulletin a été fait il y a 38 minutes, à 04:30 UTC
Vent calme
Température 2°C
Humidité 87%
Pression 1022 hPa
Visibilité 10 km ou plus
Quelques nuages à une hauteur de 3900 ft
Ciel couvert à une hauteur de 5400 ft

METAR: LFLP 180430Z AUTO 00000KT 9999 FEW039 OVC054 02/M00 Q1022 NOSIG

Heure: 06:08 (05:08 UTC)

Prévision

Le bulletin a été fait il y a 3 heures et 8 minutes, à 02:00 UTC
Prévision valable du 18 à 03 UTC au 19 à 03 UTC
Vent 4 kt de direction variable
Visibilité 10 km ou plus
Nuages fragmentés à une hauteur de 2500 ft
Nuages fragmentés à une hauteur de 4500 ft

TAF: LFLP 180200Z 1803/1903 VRB04KT 9999 BKN025 BKN045

Observations et prévisions météorologiques de plus de 4000 aéroports (messages METAR et TAF).

Les stations disponibles sont représentées par des disques jaunes et rouges sur la carte.

Passer la souris dessus pour voir le nom de la station.

Cliquer dessus pour voir les observations et prévisions météorologiques.

Pour changer de carte: cliquez sur les boutons verts avec une croix noire pour zoomer, sur le bouton vert avec un tiret pour effectuer un zoom arrière, ou sur les flèches vertes pour les cartes adjacentes.


METAR-TAF: